Simcha — PE7688 — position and weather

sailwx.info

Track history (hours):
 
Tides and Currents Weather Stations Pressure Air Temp Water Temp Dewpoint Dewpoint Depression Visibility Wind Speed Wind Dir Waves Ship Positions

Simcha

Last reported at 2014-Oct-24 09:03 UTC. Time now 2014-Oct-24 15:27 UTC.
Position N 50°04' E 008°59'.

Length 110 m.

Type: Ship. MMSI: 244780014.

Date/timePositionNaut miles runAvg speedWind from/ knotsBaromVisibWave heightAir tempDewpointWater temp
2014-Oct-24 09:03N 50°04' E 008°59'1 2.5
2014-Oct-24 08:29N 50°05' E 008°58'3 3.2
2014-Oct-24 07:33N 50°07' E 008°55'0 0.0
2014-Oct-24 06:33N 50°07' E 008°55'2 1.7
2014-Oct-24 05:33N 50°07' E 008°52'4 3.9
2014-Oct-24 04:32N 50°08' E 008°46'1 1.5
2014-Oct-24 03:33N 50°06' E 008°46'0 0.0
2014-Oct-24 02:33N 50°06' E 008°46'0 0.0
2014-Oct-24 01:33N 50°06' E 008°46'0 0.0
2014-Oct-24 00:33N 50°06' E 008°46'0 0.0
2014-Oct-23 23:33N 50°06' E 008°46'0 0.0
2014-Oct-23 22:33N 50°06' E 008°46'0 0.0
2014-Oct-23 21:33N 50°06' E 008°46'2 2.0
2014-Oct-23 20:29N 50°06' E 008°43'  
2014-Oct-20 13:13N 50°07' E 008°45'3 4.3
2014-Oct-20 12:33N 50°08' E 008°49'3 2.9
2014-Oct-20 11:33N 50°07' E 008°53'4 3.9
2014-Oct-20 10:32N 50°05' E 008°58'  
Track history (hours):
 
Tides and Currents Weather Stations Pressure Air Temp Water Temp Dewpoint Dewpoint Depression Visibility Wind Speed Wind Dir Waves Ship Positions

Simcha

Last reported at 2014-Oct-24 09:03 UTC. Time now 2014-Oct-24 15:27 UTC.
Position N 50°04' E 008°59'.

Length 110 m.

Type: Ship. MMSI: 244780014.

Date/timePositionNaut miles runAvg speedWind from/ knotsBaromVisibWave heightAir tempDewpointWater temp
2014-Oct-24 09:03N 50°04' E 008°59'1 2.5
2014-Oct-24 08:29N 50°05' E 008°58'3 3.2
2014-Oct-24 07:33N 50°07' E 008°55'0 0.0
2014-Oct-24 06:33N 50°07' E 008°55'2 1.7
2014-Oct-24 05:33N 50°07' E 008°52'4 3.9
2014-Oct-24 04:32N 50°08' E 008°46'1 1.5
2014-Oct-24 03:33N 50°06' E 008°46'0 0.0
2014-Oct-24 02:33N 50°06' E 008°46'0 0.0
2014-Oct-24 01:33N 50°06' E 008°46'0 0.0
2014-Oct-24 00:33N 50°06' E 008°46'0 0.0
2014-Oct-23 23:33N 50°06' E 008°46'0 0.0
2014-Oct-23 22:33N 50°06' E 008°46'0 0.0
2014-Oct-23 21:33N 50°06' E 008°46'2 2.0
2014-Oct-23 20:29N 50°06' E 008°43'  
2014-Oct-20 13:13N 50°07' E 008°45'3 4.3
2014-Oct-20 12:33N 50°08' E 008°49'3 2.9
2014-Oct-20 11:33N 50°07' E 008°53'4 3.9
2014-Oct-20 10:32N 50°05' E 008°58'  

Dump ship's entire track history